Portada
METAR-TAF:

METAR-TAF

Aeropuertos :

O'Neill Municipal Airport (John L. Baker Field)

O'Neill, Nebraska, Estados Unidos

latitud: 42-28N, longitud: 098-41W, altitud: 619 m

Observación

El informe se hizo hace 15 minutos, a las 05:55 UTC
Viento 13 kt del sur con ráfagas de 19 kt
Temperatura 27°C
Humedad 62%
Presión 1008 hPa
Visibilidad: 16.1 km
Nubes dispersas a una altura de 12000 ft

METAR: KONL 070555Z AUTO 17013G19KT 10SM SCT120 27/19 A2977 RMK AO2 T02680191 10305 20268 403240200

Hora: 01:10 (06:10 UTC)


TAF: falta

Observaciones y pronósticos meteorológicos de más de 4000 aeropuertos (mensajes METAR y TAF).

Los puntos amarillos y rojos representan las estaciones disponibles.

Ponga el ratón en el punto deseado para ver el nombre de la estación.

Haga clic para ver las observaciones y los pronósticos meteorológicos.

Para cambiar el mapa : haga clic en los botones verdes con una cruz de color negro para hacer un zoom, en el botón verde con un guión para alejar o en las flechas verdes para mapas adyacentes.


METAR-TAF: